Time;durP1;ratioP1;P1;durP2;ratioP2;P2;SDS_P1;SDS_P2;PMS_P1;PMS_P2;Temp;Humidity;BMP_temperature;BMP_pressure;BME280_temperature;BME280_humidity;BME280_pressure;Samples;Min_cycle;Max_cycle;Signal;HPM_P1;HPM_P2
2021/12/04 00:00:46;;;;;;;;;3.25;2.00;;;;;11.17;75.36;99740.41;5016393;28;45431;-82
2021/12/04 00:03:12;;;;;;;;;2.75;2.75;;;;;11.22;75.77;99743.66;5017926;28;45482;-82
2021/12/04 00:05:40;;;;;;;;;1.00;1.00;;;;;11.23;75.54;99732.22;5011646;28;45228;-82
2021/12/04 00:08:06;;;;;;;;;1.25;1.25;;;;;11.29;75.78;99717.88;5017560;28;45393;-87
2021/12/04 00:10:31;;;;;;;;;2.00;2.00;;;;;11.32;75.78;99727.41;5008226;28;46059;-87
2021/12/04 00:12:57;;;;;;;;;0.00;0.00;;;;;11.39;75.79;99718.25;5016959;28;45566;-84
2021/12/04 00:15:22;;;;;;;;;1.00;1.00;;;;;11.43;75.61;99709.25;5010505;28;45560;-85
2021/12/04 00:17:48;;;;;;;;;1.25;1.00;;;;;11.45;76.08;99704.78;5020941;28;45550;-85
2021/12/04 00:20:13;;;;;;;;;0.25;0.00;;;;;11.51;75.98;99703.59;5016653;28;47553;-85
2021/12/04 00:22:39;;;;;;;;;1.25;1.25;;;;;11.55;76.15;99702.50;5011685;28;46421;-84
2021/12/04 00:25:06;;;;;;;;;1.50;1.00;;;;;11.57;76.13;99695.38;5020544;28;45149;-85
2021/12/04 00:27:32;;;;;;;;;0.00;0.00;;;;;11.62;76.08;99699.53;5017072;28;45727;-86
2021/12/04 00:29:58;;;;;;;;;0.00;0.00;;;;;11.64;76.55;99688.00;5015764;28;45613;-87
2021/12/04 00:35:05;;;;;;;;;0.00;0.00;;;;;11.75;76.46;99683.94;5016479;28;45529;-86
2021/12/04 00:37:49;;;;;;;;;1.00;0.00;;;;;11.77;77.15;99685.53;5018920;28;45284;-86
2021/12/04 00:49:06;;;;;;;;;0.00;0.00;;;;;11.86;76.24;99692.06;5013349;28;45481;-85
2021/12/04 00:49:29;;;;;;;;;0.00;0.00;;;;;11.98;76.39;99671.25;5017180;28;45423;-96
2021/12/04 00:51:43;;;;;;;;;0.00;0.00;;;;;12.00;76.20;99679.94;5012198;28;46106;-96
2021/12/04 00:54:10;;;;;;;;;0.00;0.00;;;;;12.07;76.49;99676.03;5018544;28;45331;-91
2021/12/04 00:56:37;;;;;;;;;1.25;0.25;;;;;12.10;76.04;99675.00;5037469;28;45279;-96
2021/12/04 00:59:03;;;;;;;;;0.50;0.00;;;;;12.14;76.15;99680.03;5027838;28;46078;-96
2021/12/04 01:01:29;;;;;;;;;0.00;0.00;;;;;12.17;76.29;99671.13;5047542;28;47080;-96
2021/12/04 01:03:55;;;;;;;;;0.00;0.00;;;;;12.19;76.53;99674.50;5015216;28;45295;-96
2021/12/04 01:06:20;;;;;;;;;1.00;0.25;;;;;12.23;76.47;99677.78;5017689;28;45347;-89
2021/12/04 01:08:46;;;;;;;;;0.50;0.50;;;;;12.25;76.36;99670.66;5019386;28;45450;-89
2021/12/04 01:11:11;;;;;;;;;1.50;0.00;;;;;12.28;75.88;99659.94;5019927;28;45361;-90
2021/12/04 01:13:37;;;;;;;;;0.00;0.00;;;;;12.31;75.95;99666.81;5012629;28;45427;-90
2021/12/04 01:16:02;;;;;;;;;0.00;0.00;;;;;12.31;76.54;99670.31;5010945;28;45589;-88
2021/12/04 01:18:28;;;;;;;;;0.25;0.00;;;;;12.35;76.05;99661.28;5020331;28;45509;-88
2021/12/04 01:20:53;;;;;;;;;0.75;0.00;;;;;12.38;76.16;99674.28;5020200;28;45491;-89
2021/12/04 01:23:19;;;;;;;;;0.00;0.00;;;;;12.42;76.11;99660.94;5017508;28;45593;-88
2021/12/04 01:25:45;;;;;;;;;0.00;0.00;;;;;12.46;76.04;99665.09;5019932;28;45391;-88
2021/12/04 01:28:11;;;;;;;;;1.00;0.00;;;;;12.48;76.01;99664.06;5020152;28;45850;-91
2021/12/04 01:30:37;;;;;;;;;0.00;0.00;;;;;12.49;75.97;99671.00;5019519;28;45322;-91
2021/12/04 01:33:03;;;;;;;;;0.00;0.00;;;;;12.51;76.38;99668.31;5017487;28;45610;-90
2021/12/04 01:35:28;;;;;;;;;0.00;0.00;;;;;12.55;76.05;99668.97;5012451;28;45308;-90
2021/12/04 01:37:54;;;;;;;;;0.00;0.00;;;;;12.57;76.26;99667.09;5018418;28;46106;-85
2021/12/04 01:40:19;;;;;;;;;0.00;0.00;;;;;12.58;76.07;99659.09;5017989;28;45247;-83
2021/12/04 01:42:45;;;;;;;;;0.00;0.00;;;;;12.62;75.94;99666.84;5017850;28;45524;-84
2021/12/04 01:45:11;;;;;;;;;0.00;0.00;;;;;12.65;76.03;99661.38;5013539;28;45379;-84
2021/12/04 01:47:36;;;;;;;;;0.00;0.00;;;;;12.67;75.89;99668.25;5016257;28;45413;-82
2021/12/04 01:50:04;;;;;;;;;0.00;0.00;;;;;12.70;75.73;99660.16;5018918;28;46144;-83
2021/12/04 01:52:30;;;;;;;;;0.25;0.00;;;;;12.71;76.02;99674.19;5014724;28;45477;-83
2021/12/04 01:54:56;;;;;;;;;0.00;0.00;;;;;12.70;76.20;99668.06;5019268;28;45220;-83
2021/12/04 01:57:23;;;;;;;;;0.00;0.00;;;;;12.72;76.05;99675.88;5019888;28;45392;-82
2021/12/04 01:59:49;;;;;;;;;0.00;0.00;;;;;12.75;75.85;99672.22;5018790;28;45495;-83
2021/12/04 02:02:14;;;;;;;;;0.25;0.00;;;;;12.79;76.29;99682.47;5006766;28;45189;-82
2021/12/04 02:04:40;;;;;;;;;0.00;0.00;;;;;12.80;75.90;99686.81;5018302;28;45422;-83
2021/12/04 02:07:05;;;;;;;;;0.00;0.00;;;;;12.82;76.00;99676.19;5015992;28;45244;-83
2021/12/04 02:09:36;;;;;;;;;0.25;0.00;;;;;12.85;75.78;99677.78;5000774;28;46085;-83
2021/12/04 02:12:05;;;;;;;;;0.00;0.00;;;;;12.83;75.51;99678.75;5029636;28;45272;-82
2021/12/04 02:14:34;;;;;;;;;0.00;0.00;;;;;12.89;75.81;99676.69;5016684;28;45498;-82
2021/12/04 02:17:00;;;;;;;;;0.00;0.00;;;;;12.92;75.47;99679.97;5015951;28;46261;-82
2021/12/04 02:19:25;;;;;;;;;0.25;0.00;;;;;12.92;76.00;99676.47;5015273;28;47044;-82
2021/12/04 02:21:51;;;;;;;;;0.00;0.00;;;;;12.94;75.49;99674.59;5016628;28;45238;-82
2021/12/04 02:24:16;;;;;;;;;0.00;0.00;;;;;12.96;75.75;99672.75;5011839;28;45264;-82
2021/12/04 02:26:42;;;;;;;;;0.00;0.00;;;;;12.96;75.46;99675.38;5019245;28;45283;-83
2021/12/04 02:29:08;;;;;;;;;0.00;0.00;;;;;12.98;75.30;99678.75;5010440;28;45407;-86
2021/12/04 02:31:34;;;;;;;;;0.00;0.00;;;;;13.01;75.41;99681.19;5008910;28;45430;-83
2021/12/04 02:33:59;;;;;;;;;0.00;0.00;;;;;13.00;75.36;99684.78;5022278;28;45279;-84
2021/12/04 02:36:25;;;;;;;;;0.00;0.00;;;;;13.01;75.43;99680.38;5014373;28;46471;-84
2021/12/04 02:38:53;;;;;;;;;0.00;0.00;;;;;13.02;75.13;99676.78;5018550;28;47940;-84
2021/12/04 02:41:20;;;;;;;;;0.00;0.00;;;;;13.02;75.31;99685.53;5012371;28;45390;-81
2021/12/04 02:43:49;;;;;;;;;0.00;0.00;;;;;13.07;75.45;99689.69;5034072;28;45395;-87
2021/12/04 02:46:16;;;;;;;;;0.00;0.00;;;;;13.08;75.04;99686.13;5012120;28;46549;-91
2021/12/04 02:48:44;;;;;;;;;0.00;0.00;;;;;13.07;75.16;99681.75;5012448;28;45529;-90
2021/12/04 02:51:10;;;;;;;;;0.00;0.00;;;;;13.11;75.03;99691.22;5017966;28;45997;-88
2021/12/04 02:53:36;;;;;;;;;0.50;0.00;;;;;13.11;75.17;99675.38;5021301;28;45550;-88
2021/12/04 02:56:01;;;;;;;;;0.00;0.00;;;;;13.11;75.16;99685.94;5016283;28;45297;-88
2021/12/04 02:58:27;;;;;;;;;0.00;0.00;;;;;13.11;75.16;99693.84;5009321;28;45450;-87
2021/12/04 03:00:52;;;;;;;;;0.00;0.00;;;;;13.14;74.70;99698.91;5014084;28;45276;-87
2021/12/04 03:03:19;;;;;;;;;0.00;0.00;;;;;13.14;75.01;99694.50;5009985;28;45447;-91
2021/12/04 03:05:49;;;;;;;;;0.00;0.00;;;;;13.16;74.83;99694.41;5006422;28;46108;-89
2021/12/04 03:08:15;;;;;;;;;0.25;0.25;;;;;13.15;74.97;99690.06;5008947;28;46209;-89
2021/12/04 03:10:40;;;;;;;;;0.00;0.00;;;;;13.17;75.01;99696.09;5011139;28;45529;-90
2021/12/04 03:13:09;;;;;;;;;0.25;0.00;;;;;13.20;74.91;99689.78;5009842;28;45616;-86
2021/12/04 03:15:34;;;;;;;;;0.00;0.00;;;;;13.21;74.80;99687.03;5015813;28;45321;-86
2021/12/04 03:18:00;;;;;;;;;0.00;0.00;;;;;13.22;75.20;99690.53;5020118;28;45312;-86
2021/12/04 03:20:25;;;;;;;;;0.00;0.00;;;;;13.22;74.94;99678.19;5021810;28;45574;-86
2021/12/04 03:22:58;;;;;;;;;0.00;0.00;;;;;13.23;74.89;99674.63;5021410;28;45292;-85
2021/12/04 03:25:23;;;;;;;;;0.00;0.00;;;;;13.25;74.83;99675.38;5010622;28;45749;-86
2021/12/04 03:27:50;;;;;;;;;0.75;0.75;;;;;13.26;74.94;99679.69;5017441;28;45519;-85
2021/12/04 03:41:28;;;;;;;;;0.00;0.00;;;;;13.35;74.23;99680.94;5019583;28;45265;-89
2021/12/04 03:43:53;;;;;;;;;0.00;0.00;;;;;13.36;74.43;99677.34;5009775;28;45372;-91
2021/12/04 03:46:19;;;;;;;;;0.00;0.00;;;;;13.37;73.95;99678.19;5014805;28;45290;-87
2021/12/04 03:51:10;;;;;;;;;0.00;0.00;;;;;13.38;74.16;99674.63;5017279;28;45276;-86
2021/12/04 03:53:36;;;;;;;;;0.00;0.00;;;;;13.38;73.88;99678.09;5013289;28;45260;-86
2021/12/04 03:56:03;;;;;;;;;0.00;0.00;;;;;13.43;74.26;99679.63;5019319;28;45381;-86
2021/12/04 03:58:29;;;;;;;;;0.00;0.00;;;;;13.43;74.11;99680.47;5012452;28;46434;-86
2021/12/04 04:00:55;;;;;;;;;0.00;0.00;;;;;13.46;74.13;99682.03;5016520;28;45270;-86
2021/12/04 04:03:20;;;;;;;;;0.00;0.00;;;;;13.44;73.62;99674.22;5021996;28;45366;-85
2021/12/04 04:05:46;;;;;;;;;0.00;0.00;;;;;13.47;73.86;99681.13;5019758;28;45456;-86
2021/12/04 04:08:12;;;;;;;;;0.25;0.00;;;;;13.47;74.05;99678.47;5015056;28;45712;-88
2021/12/04 04:10:38;;;;;;;;;0.00;0.00;;;;;13.46;74.08;99674.97;5006878;28;45548;-86
2021/12/04 04:13:03;;;;;;;;;0.75;0.00;;;;;13.44;73.98;99676.03;5017890;28;45587;-83
2021/12/04 04:15:29;;;;;;;;;0.00;0.00;;;;;13.45;74.06;99677.72;5020362;28;46081;-84
2021/12/04 04:17:55;;;;;;;;;0.00;0.00;;;;;13.44;74.14;99670.75;5012020;28;45337;-83
2021/12/04 04:20:21;;;;;;;;;0.00;0.00;;;;;13.45;74.24;99672.44;5010718;28;45341;-83
2021/12/04 04:22:48;;;;;;;;;0.00;0.00;;;;;13.46;73.98;99679.41;5016807;28;45478;-85
2021/12/04 04:25:16;;;;;;;;;0.00;0.00;;;;;13.44;73.86;99668.97;5021203;28;45362;-85
2021/12/04 04:27:42;;;;;;;;;0.50;0.00;;;;;13.48;73.65;99673.09;5016859;28;48346;-85
2021/12/04 04:30:13;;;;;;;;;0.00;0.00;;;;;13.45;73.78;99668.03;5010093;28;45539;-86
2021/12/04 04:32:38;;;;;;;;;0.00;0.00;;;;;13.47;73.59;99667.91;5009432;28;45442;-82
2021/12/04 04:35:24;;;;;;;;;0.25;0.00;;;;;13.44;73.50;99668.97;5018899;28;45580;-82
2021/12/04 05:10:18;;;;;;;;;0.00;0.00;;;;;13.31;73.87;99649.56;5015686;28;45265;-84
2021/12/04 05:13:06;;;;;;;;;0.00;0.00;;;;;13.33;74.02;99648.53;5016335;28;45737;-83
2021/12/04 05:20:35;;;;;;;;;0.00;0.00;;;;;13.31;74.10;99639.84;5014570;28;46006;-82
2021/12/04 05:23:01;;;;;;;;;2.00;0.00;;;;;13.31;73.66;99644.28;5017972;28;45278;-82
2021/12/04 05:25:29;;;;;;;;;0.00;0.00;;;;;13.32;74.09;99644.19;5020463;28;45218;-81
2021/12/04 05:27:54;;;;;;;;;0.75;0.00;;;;;13.33;73.83;99637.13;5017391;28;45217;-82
2021/12/04 05:30:20;;;;;;;;;0.00;0.00;;;;;13.34;74.06;99628.25;5009332;28;45451;-81
2021/12/04 05:32:45;;;;;;;;;0.00;0.00;;;;;13.35;73.74;99636.06;5017840;28;45316;-81
2021/12/04 05:35:10;;;;;;;;;0.50;0.00;;;;;13.36;73.99;99637.75;5011086;28;45398;-81
2021/12/04 05:37:36;;;;;;;;;0.25;0.25;;;;;13.37;73.87;99636.81;5019882;28;45307;-81
2021/12/04 05:40:02;;;;;;;;;0.00;0.00;;;;;13.39;73.84;99637.56;5019383;28;46398;-81
2021/12/04 05:42:29;;;;;;;;;0.50;0.00;;;;;13.40;73.93;99635.78;5015986;28;45458;-82
2021/12/04 05:44:54;;;;;;;;;0.00;0.00;;;;;13.40;73.52;99635.78;5009787;28;45371;-86
2021/12/04 05:47:24;;;;;;;;;0.00;0.00;;;;;13.39;73.44;99642.00;5017514;28;46463;-85
2021/12/04 05:55:08;;;;;;;;;0.50;0.00;;;;;13.36;73.50;99648.31;5019560;28;45271;-88
2021/12/04 05:57:33;;;;;;;;;2.50;0.00;;;;;13.34;73.39;99647.56;5011069;28;45632;-88
2021/12/04 05:59:59;;;;;;;;;0.00;0.00;;;;;13.33;73.28;99643.25;5018952;28;46294;-88
2021/12/04 06:02:24;;;;;;;;;0.00;0.00;;;;;13.32;73.36;99644.19;5002542;28;45222;-85
2021/12/04 06:04:50;;;;;;;;;0.00;0.00;;;;;13.32;73.57;99640.69;5017210;28;45453;-89
2021/12/04 06:07:15;;;;;;;;;0.00;0.00;;;;;13.32;73.34;99645.97;5018464;28;45466;-88
2021/12/04 06:09:40;;;;;;;;;0.00;0.00;;;;;13.30;73.23;99642.56;5014588;28;47316;-88
2021/12/04 06:12:08;;;;;;;;;0.00;0.00;;;;;13.30;73.44;99639.94;5005183;28;45413;-88
2021/12/04 06:14:34;;;;;;;;;0.00;0.00;;;;;13.26;73.40;99637.47;5013873;28;45461;-88
2021/12/04 06:17:01;;;;;;;;;0.00;0.00;;;;;13.27;73.37;99643.63;5011357;28;45435;-85
2021/12/04 06:22:37;;;;;;;;;0.00;0.00;;;;;13.28;73.59;99637.41;5012679;28;45487;-85
2021/12/04 06:24:56;;;;;;;;;0.00;0.00;;;;;13.26;73.42;99641.94;5012935;28;45174;-86
2021/12/04 06:27:21;;;;;;;;;0.00;0.00;;;;;13.24;73.46;99626.19;5012082;28;45489;-85
2021/12/04 06:29:47;;;;;;;;;0.00;0.00;;;;;13.26;73.20;99628.75;5015608;28;46224;-87
2021/12/04 06:32:12;;;;;;;;;0.00;0.00;;;;;13.23;73.25;99624.50;5018764;28;45210;-87
2021/12/04 06:34:37;;;;;;;;;0.00;0.00;;;;;13.24;73.50;99617.41;5003216;28;45218;-88
2021/12/04 06:37:03;;;;;;;;;0.00;0.00;;;;;13.24;73.16;99612.97;5019002;28;45225;-87
2021/12/04 06:39:28;;;;;;;;;0.00;0.00;;;;;13.24;73.53;99620.91;5013056;28;46098;-87
2021/12/04 06:41:54;;;;;;;;;0.00;0.00;;;;;13.24;73.22;99617.41;5014066;28;45313;-92
2021/12/04 06:44:19;;;;;;;;;0.50;0.00;;;;;13.24;73.42;99612.97;5018278;28;45249;-92
2021/12/04 06:46:44;;;;;;;;;0.00;0.00;;;;;13.24;73.43;99614.78;5000726;28;45364;-87
2021/12/04 06:49:20;;;;;;;;;0.00;0.00;;;;;13.23;73.52;99619.22;5010811;28;46386;-85
2021/12/04 06:51:50;;;;;;;;;0.00;0.00;;;;;13.23;73.42;99618.38;5023173;28;45416;-86
2021/12/04 06:54:23;;;;;;;;;0.00;0.00;;;;;13.22;73.56;99617.50;5015893;28;45259;-83
2021/12/04 06:56:49;;;;;;;;;0.00;0.00;;;;;13.22;73.58;99619.31;5008499;28;45591;-87
2021/12/04 06:59:20;;;;;;;;;0.00;0.00;;;;;13.22;73.53;99611.38;5013335;28;47294;-85
2021/12/04 07:01:45;;;;;;;;;0.00;0.00;;;;;13.24;73.61;99618.25;5019194;28;45831;-81
2021/12/04 07:04:11;;;;;;;;;0.00;0.00;;;;;13.23;73.73;99616.59;5019069;28;45279;-81
2021/12/04 07:06:37;;;;;;;;;0.50;0.50;;;;;13.24;73.69;99617.41;5014752;28;45425;-81
2021/12/04 07:09:04;;;;;;;;;1.00;1.00;;;;;13.22;73.61;99612.25;5014566;28;46075;-80
2021/12/04 07:11:29;;;;;;;;;0.25;0.25;;;;;13.25;73.92;99598.00;5023410;28;45408;-81
2021/12/04 07:13:55;;;;;;;;;1.25;0.00;;;;;13.25;73.90;99598.00;5012272;28;45376;-82
2021/12/04 07:16:22;;;;;;;;;0.00;0.00;;;;;13.23;73.74;99584.91;5016806;28;46807;-82
2021/12/04 07:18:47;;;;;;;;;0.00;0.00;;;;;13.27;74.18;99594.34;5016847;28;48167;-82
2021/12/04 07:21:13;;;;;;;;;1.00;1.00;;;;;13.27;74.19;99596.97;5001767;28;45609;-82
2021/12/04 07:23:39;;;;;;;;;1.00;1.00;;;;;13.28;74.21;99596.00;5019668;28;45272;-81
2021/12/04 07:26:06;;;;;;;;;0.25;0.25;;;;;13.29;74.01;99588.94;5018681;28;45564;-83
2021/12/04 07:28:31;;;;;;;;;0.75;0.00;;;;;13.28;74.48;99588.09;5021899;28;45570;-83
2021/12/04 07:30:57;;;;;;;;;2.00;2.00;;;;;13.29;74.16;99594.22;5022097;28;45336;-82
2021/12/04 07:33:22;;;;;;;;;1.50;1.50;;;;;13.27;74.19;99586.41;5021371;28;45348;-82
2021/12/04 07:35:49;;;;;;;;;3.50;2.50;;;;;13.27;74.25;99581.13;5015682;28;45555;-82
2021/12/04 07:38:14;;;;;;;;;2.00;2.00;;;;;13.27;74.28;99586.41;5021486;28;46751;-82
2021/12/04 07:40:41;;;;;;;;;6.25;3.75;;;;;13.30;74.84;99600.34;5021917;28;45406;-82
2021/12/04 07:43:06;;;;;;;;;3.00;3.00;;;;;13.29;74.78;99599.50;5009034;28;45399;-82
2021/12/04 07:45:32;;;;;;;;;4.50;4.00;;;;;13.28;74.47;99596.00;5021384;28;45361;-82
2021/12/04 07:47:57;;;;;;;;;4.00;4.00;;;;;13.31;74.24;99597.59;5014899;28;45676;-86
2021/12/04 07:50:23;;;;;;;;;2.75;1.75;;;;;13.30;74.42;99597.72;5014336;28;45262;-82
2021/12/04 07:52:49;;;;;;;;;3.00;1.00;;;;;13.33;74.51;99605.44;5016289;28;45189;-83
2021/12/04 07:55:16;;;;;;;;;2.25;2.00;;;;;13.36;74.50;99605.22;5013512;28;45612;-82
2021/12/04 07:57:41;;;;;;;;;2.00;1.00;;;;;13.37;74.55;99612.22;5015175;28;45595;-82
2021/12/04 08:00:11;;;;;;;;;0.00;0.00;;;;;13.38;74.52;99613.94;5016917;28;45402;-83
2021/12/04 08:02:37;;;;;;;;;0.00;0.00;;;;;13.38;74.55;99613.94;5021716;28;45251;-83
2021/12/04 08:05:03;;;;;;;;;0.00;0.00;;;;;13.39;74.53;99611.19;5020244;28;45611;-82
2021/12/04 08:07:29;;;;;;;;;0.00;0.00;;;;;13.41;74.48;99616.34;5015033;28;46637;-83
2021/12/04 08:09:54;;;;;;;;;0.50;0.50;;;;;13.41;74.25;99623.44;5014957;28;45224;-81
2021/12/04 08:12:19;;;;;;;;;0.00;0.00;;;;;13.38;74.64;99627.94;5018513;28;45302;-81
2021/12/04 08:14:45;;;;;;;;;0.00;0.00;;;;;13.39;74.09;99620.88;5015542;28;45521;-80
2021/12/04 08:17:10;;;;;;;;;0.00;0.00;;;;;13.41;74.02;99620.81;5021194;28;46271;-83
2021/12/04 08:19:36;;;;;;;;;0.00;0.00;;;;;13.41;74.02;99615.53;5018307;28;45510;-82
2021/12/04 08:22:02;;;;;;;;;0.00;0.00;;;;;13.39;73.58;99610.31;5020663;28;45482;-83
2021/12/04 08:24:27;;;;;;;;;0.00;0.00;;;;;13.39;73.70;99618.25;5021378;28;45322;-82
2021/12/04 08:26:53;;;;;;;;;0.75;0.00;;;;;13.40;73.58;99627.88;5021092;28;46394;-79
2021/12/04 08:29:19;;;;;;;;;0.00;0.00;;;;;13.39;73.47;99631.44;5018098;28;45848;-80
2021/12/04 08:31:46;;;;;;;;;0.00;0.00;;;;;13.40;73.02;99635.78;5017833;28;45454;-79
2021/12/04 08:34:12;;;;;;;;;0.00;0.00;;;;;13.44;73.35;99654.91;5021380;28;45451;-79
2021/12/04 08:36:37;;;;;;;;;0.00;0.00;;;;;13.41;73.50;99648.03;5019859;28;45225;-79
2021/12/04 08:39:06;;;;;;;;;0.00;0.00;;;;;13.39;73.15;99652.56;5020571;28;45191;-81
2021/12/04 08:41:31;;;;;;;;;0.00;0.00;;;;;13.39;72.48;99649.91;5020926;28;45431;-82
2021/12/04 08:43:57;;;;;;;;;0.00;0.00;;;;;13.37;72.05;99665.00;5018098;28;45315;-82
2021/12/04 08:46:23;;;;;;;;;0.00;0.00;;;;;13.34;72.26;99663.41;5021075;28;45434;-81
2021/12/04 08:48:54;;;;;;;;;0.00;0.00;;;;;13.28;71.80;99651.41;5018269;28;45735;-83
2021/12/04 08:51:22;;;;;;;;;0.00;0.00;;;;;13.27;71.97;99659.44;5009411;28;45234;-86
2021/12/04 08:53:52;;;;;;;;;0.00;0.00;;;;;13.27;71.57;99652.38;5016878;28;45585;-88
2021/12/04 08:56:17;;;;;;;;;0.00;0.00;;;;;13.28;71.40;99671.72;5019869;28;45707;-90
2021/12/04 08:58:43;;;;;;;;;0.00;0.00;;;;;13.28;71.13;99675.16;5004130;28;45666;-84
2021/12/04 09:01:13;;;;;;;;;0.00;0.00;;;;;13.24;71.47;99671.03;5010244;28;45157;-91
2021/12/04 09:03:45;;;;;;;;;0.00;0.00;;;;;13.21;71.51;99679.13;5033974;28;46878;-88
2021/12/04 09:06:12;;;;;;;;;0.00;0.00;;;;;13.19;71.22;99672.25;5019211;28;45675;-89
2021/12/04 09:08:38;;;;;;;;;0.00;0.00;;;;;13.22;71.12;99682.63;5014433;28;45442;-89
2021/12/04 09:11:12;;;;;;;;;0.00;0.00;;;;;13.19;71.41;99688.94;5013772;28;45323;-83
2021/12/04 09:13:39;;;;;;;;;0.75;0.75;;;;;13.18;71.59;99696.97;5016706;28;45365;-89
2021/12/04 09:16:05;;;;;;;;;0.00;0.00;;;;;13.14;70.73;99705.06;5014052;28;45463;-87
2021/12/04 09:18:31;;;;;;;;;1.75;0.00;;;;;13.15;71.36;99714.69;5016592;28;45364;-84
2021/12/04 09:20:56;;;;;;;;;0.00;0.00;;;;;13.08;70.87;99716.00;5011779;28;45280;-85
2021/12/04 09:23:25;;;;;;;;;0.00;0.00;;;;;13.05;70.81;99724.06;5012595;28;45415;-86
2021/12/04 09:25:58;;;;;;;;;0.50;0.50;;;;;13.03;70.42;99721.53;5018611;28;45435;-85
2021/12/04 09:31:44;;;;;;;;;0.50;0.00;;;;;12.98;69.36;99733.28;5017192;28;45537;-86
2021/12/04 09:34:23;;;;;;;;;0.75;0.75;;;;;12.96;69.38;99720.22;5014741;28;45605;-86
2021/12/04 09:37:03;;;;;;;;;0.00;0.00;;;;;12.88;66.30;99738.25;5010977;28;46244;-85
2021/12/04 10:01:41;;;;;;;;;1.50;0.25;;;;;12.75;66.94;99770.63;5011736;28;45582;-94
2021/12/04 10:34:31;;;;;;;;;1.00;0.00;;;;;12.65;64.54;99820.41;5016883;28;45315;-83
2021/12/04 10:37:22;;;;;;;;;1.50;0.50;;;;;12.67;63.99;99825.56;5013061;28;45490;-84
2021/12/04 10:39:48;;;;;;;;;0.25;0.00;;;;;12.68;64.67;99811.47;5017152;28;46047;-84
2021/12/04 10:42:17;;;;;;;;;1.00;0.25;;;;;12.70;63.89;99812.22;5011243;28;45378;-82
2021/12/04 10:44:50;;;;;;;;;1.00;0.25;;;;;12.68;63.75;99816.72;5015002;28;45510;-83
2021/12/04 10:47:21;;;;;;;;;1.00;1.00;;;;;12.66;64.16;99816.84;5016619;28;45156;-82
2021/12/04 11:03:34;;;;;;;;;2.25;0.75;;;;;12.47;65.01;99833.66;5013715;28;45560;-83
2021/12/04 11:25:36;;;;;;;;;2.50;1.50;;;;;12.35;67.42;99855.41;5022298;28;45769;-83
2021/12/04 11:28:20;;;;;;;;;2.00;2.00;;;;;12.31;67.49;99864.44;5011883;28;45456;-83
2021/12/04 11:46:48;;;;;;;;;1.00;1.00;;;;;11.89;67.61;99907.84;5022129;28;45214;-82
2021/12/04 11:49:21;;;;;;;;;1.25;1.00;;;;;11.76;68.74;99901.47;5021989;28;45233;-83
2021/12/04 11:51:57;;;;;;;;;1.00;1.00;;;;;11.61;67.31;99909.25;5011326;28;45311;-83
2021/12/04 11:54:43;;;;;;;;;1.25;1.00;;;;;11.47;67.86;99910.81;5017553;28;46996;-84
2021/12/04 11:57:11;;;;;;;;;1.00;1.00;;;;;11.36;68.50;99911.31;5012485;28;46536;-84
2021/12/04 11:59:39;;;;;;;;;2.00;1.00;;;;;11.32;67.95;99906.28;5014228;28;45499;-83
2021/12/04 12:02:08;;;;;;;;;2.50;1.00;;;;;11.29;68.54;99906.44;5004174;28;45289;-84
2021/12/04 12:04:38;;;;;;;;;2.75;2.00;;;;;11.28;68.71;99916.13;5012695;28;46977;-85
2021/12/04 12:07:23;;;;;;;;;2.00;2.00;;;;;11.29;68.91;99914.31;5021390;28;45897;-84
2021/12/04 12:10:00;;;;;;;;;3.00;3.00;;;;;11.25;68.97;99916.28;5016348;28;45442;-85
2021/12/04 12:12:35;;;;;;;;;2.75;2.50;;;;;11.28;68.87;99921.38;5013285;28;45217;-85
2021/12/04 12:15:07;;;;;;;;;1.75;1.50;;;;;11.24;68.05;99920.69;5024657;28;46360;-84
2021/12/04 12:17:38;;;;;;;;;1.50;1.50;;;;;11.24;68.07;99922.44;5021265;28;45556;-88
2021/12/04 12:20:12;;;;;;;;;2.50;2.50;;;;;11.25;67.86;99921.53;5015979;28;45967;-89
2021/12/04 12:22:57;;;;;;;;;5.50;3.00;;;;;11.24;67.12;99938.22;5018000;28;45355;-89
2021/12/04 12:36:11;;;;;;;;;4.25;3.00;;;;;11.31;64.92;99983.53;5010506;28;45446;-87
2021/12/04 12:38:58;;;;;;;;;3.00;3.00;;;;;11.33;65.58;99998.28;5034305;28;47097;-87
2021/12/04 12:41:28;;;;;;;;;2.00;2.00;;;;;11.32;64.30;100011.53;5019669;28;45234;-87
2021/12/04 12:43:57;;;;;;;;;3.25;2.75;;;;;11.29;64.73;100002.00;5016120;28;45470;-87
2021/12/04 12:46:45;;;;;;;;;3.00;1.75;;;;;11.29;64.19;100003.78;5011691;28;46259;-86
2021/12/04 12:49:19;;;;;;;;;5.00;2.00;;;;;11.28;63.66;100004.72;5018305;28;47986;-86
2021/12/04 12:52:11;;;;;;;;;3.00;3.00;;;;;11.30;64.75;100002.84;5020752;28;45578;-87
2021/12/04 12:54:49;;;;;;;;;3.25;3.25;;;;;11.33;64.69;100011.44;5005033;28;45282;-87
2021/12/04 12:57:25;;;;;;;;;4.00;2.75;;;;;11.34;63.70;100015.78;5034084;28;47177;-88
2021/12/04 13:11:47;;;;;;;;;4.00;4.00;;;;;11.37;61.90;100041.09;5020527;28;45217;-90
2021/12/04 13:14:41;;;;;;;;;3.00;2.00;;;;;11.37;55.79;100041.09;5016556;28;45321;-87
2021/12/04 13:17:26;;;;;;;;;6.25;2.25;;;;;11.29;55.54;100035.34;5017191;28;45603;-83
2021/12/04 13:19:54;;;;;;;;;3.25;2.25;;;;;11.28;58.18;100038.91;5012628;28;45218;-85
2021/12/04 13:22:30;;;;;;;;;3.00;2.00;;;;;11.31;59.37;100033.53;5020081;28;45284;-84
2021/12/04 13:24:59;;;;;;;;;3.75;2.00;;;;;11.32;59.71;100030.81;5015999;28;45327;-85
2021/12/04 13:29:56;;;;;;;;;5.00;2.75;;;;;11.38;61.61;100032.28;5016983;28;45530;-85
2021/12/04 13:32:32;;;;;;;;;4.75;2.00;;;;;11.37;59.02;100030.56;5008824;28;47743;-84
2021/12/04 13:35:21;;;;;;;;;6.25;3.00;;;;;11.32;58.55;100036.06;5004058;28;45848;-84
2021/12/04 13:37:48;;;;;;;;;4.00;2.75;;;;;11.32;58.86;100035.19;5024947;28;45264;-85
2021/12/04 13:40:16;;;;;;;;;7.00;3.00;;;;;11.30;59.08;100042.31;5010315;28;45252;-85
2021/12/04 13:42:43;;;;;;;;;4.75;2.75;;;;;11.30;58.70;100050.22;5005077;28;46275;-85
2021/12/04 13:45:13;;;;;;;;;2.00;2.00;;;;;11.30;58.08;100045.81;5019918;28;45421;-84
2021/12/04 13:47:40;;;;;;;;;5.00;3.00;;;;;11.31;58.72;100038.78;5008197;28;45258;-85
2021/12/04 13:52:54;;;;;;;;;3.75;2.00;;;;;11.34;58.12;100034.22;5019093;28;45525;-85
2021/12/04 13:55:20;;;;;;;;;3.00;3.00;;;;;11.34;58.08;100035.97;5019089;28;45337;-85
2021/12/04 13:57:46;;;;;;;;;4.25;4.00;;;;;11.35;57.86;100030.66;5017272;28;45287;-85
2021/12/04 14:00:14;;;;;;;;;5.00;4.50;;;;;11.36;56.90;100039.38;5011805;28;46080;-85
2021/12/04 14:02:40;;;;;;;;;2.75;2.00;;;;;11.36;58.03;100040.25;5006559;28;45586;-85
2021/12/04 14:05:11;;;;;;;;;2.75;2.75;;;;;11.38;58.24;100044.59;5019793;28;45603;-84
2021/12/04 14:07:36;;;;;;;;;1.25;1.00;;;;;11.36;58.51;100045.50;5018938;28;45434;-86
2021/12/04 14:10:17;;;;;;;;;4.00;4.00;;;;;11.41;58.42;100053.19;5019723;28;45402;-86
2021/12/04 14:12:43;;;;;;;;;3.50;3.50;;;;;11.42;57.82;100049.63;4999974;28;47330;-87
2021/12/04 14:15:11;;;;;;;;;6.00;5.00;;;;;11.45;58.08;100048.63;5016438;28;45738;-86
2021/12/04 14:17:37;;;;;;;;;4.50;3.50;;;;;11.43;57.24;100047.88;5016806;28;45256;-85
2021/12/04 14:20:04;;;;;;;;;3.50;2.75;;;;;11.36;56.82;100048.13;5019460;28;45388;-85
2021/12/04 14:22:30;;;;;;;;;3.50;3.00;;;;;11.37;57.08;100059.53;5017973;28;46370;-85
2021/12/04 14:24:58;;;;;;;;;7.50;2.75;;;;;11.35;56.67;100075.41;5008825;28;45316;-86
2021/12/04 14:27:30;;;;;;;;;5.25;3.00;;;;;11.31;56.21;100073.81;5017129;28;45498;-86
2021/12/04 14:29:59;;;;;;;;;2.75;2.25;;;;;11.28;56.78;100083.63;5022332;28;45240;-86
2021/12/04 14:32:29;;;;;;;;;1.50;1.50;;;;;11.22;56.58;100079.50;5021274;28;45431;-86
2021/12/04 14:34:56;;;;;;;;;2.50;2.50;;;;;11.20;57.06;100074.31;5017984;28;45401;-85
2021/12/04 14:37:22;;;;;;;;;7.00;4.00;;;;;11.18;56.84;100086.69;4991179;28;45410;-86
2021/12/04 14:39:49;;;;;;;;;4.25;3.00;;;;;11.16;55.82;100092.94;5022885;28;45523;-85
2021/12/04 14:42:19;;;;;;;;;4.00;3.00;;;;;11.13;56.18;100096.56;5022630;28;45252;-86
2021/12/04 14:44:57;;;;;;;;;5.50;3.50;;;;;11.10;54.93;100099.34;5016642;28;45577;-86
2021/12/04 14:47:28;;;;;;;;;2.50;2.50;;;;;11.07;54.24;100110.00;5020264;28;45382;-85
2021/12/04 14:50:00;;;;;;;;;6.50;5.50;;;;;11.03;54.32;100106.66;5021371;28;46193;-85
2021/12/04 14:52:31;;;;;;;;;7.75;4.75;;;;;11.01;55.55;100109.34;5012718;28;47147;-85
2021/12/04 14:54:58;;;;;;;;;4.00;2.25;;;;;10.98;55.68;100120.03;5006790;28;45221;-85
2021/12/04 14:57:28;;;;;;;;;8.00;6.00;;;;;10.99;56.04;100131.38;5008885;28;45449;-85